createdAt,value
2023-03-28T00:01:01.362Z,2.70
2023-03-28T00:03:29.582Z,2.10
2023-03-28T00:06:00.941Z,3.67
2023-03-28T00:08:28.877Z,1.33
2023-03-28T00:11:12.746Z,1.70
2023-03-28T00:13:39.655Z,1.85
2023-03-28T00:16:09.477Z,3.17
2023-03-28T00:18:39.502Z,1.13
2023-03-28T00:21:29.307Z,1.95
2023-03-28T00:24:01.886Z,1.02
2023-03-28T00:26:32.300Z,1.25
2023-03-28T00:29:01.445Z,1.23
2023-03-28T00:31:29.806Z,3.35
2023-03-28T00:33:58.251Z,1.58
2023-03-28T00:36:29.554Z,3.00
2023-03-28T00:38:57.954Z,2.08
2023-03-28T00:41:31.239Z,1.15
2023-03-28T00:43:59.484Z,3.60
2023-03-28T00:46:35.443Z,3.33
2023-03-28T00:49:12.237Z,1.50
2023-03-28T00:51:47.564Z,1.25
2023-03-28T00:54:17.542Z,1.35
2023-03-28T00:56:49.071Z,3.55
2023-03-28T00:59:18.945Z,4.95
2023-03-28T01:01:46.662Z,1.50
2023-03-28T01:04:20.499Z,0.98
2023-03-28T01:06:54.657Z,1.45
2023-03-28T01:09:24.144Z,2.53
2023-03-28T01:11:52.180Z,1.15
2023-03-28T01:14:22.625Z,1.42
2023-03-28T01:16:49.478Z,1.25
2023-03-28T01:19:58.890Z,2.70
2023-03-28T01:22:31.676Z,2.75
2023-03-28T01:24:58.425Z,2.80
2023-03-28T01:27:53.241Z,1.83
2023-03-28T01:30:36.881Z,1.73
2023-03-28T01:33:12.694Z,1.33
2023-03-28T01:36:33.901Z,0.90
2023-03-28T01:42:03.364Z,1.00
2023-03-28T01:44:52.437Z,0.95
2023-03-28T01:47:34.487Z,3.90
2023-03-28T01:50:13.136Z,3.72
2023-03-28T01:53:22.345Z,3.75
2023-03-28T01:56:09.794Z,3.03
2023-03-28T01:58:48.067Z,1.40
2023-03-28T02:01:25.052Z,2.50
2023-03-28T02:04:00.189Z,3.75
2023-03-28T02:06:29.760Z,1.20
2023-03-28T02:08:57.602Z,2.50
2023-03-28T02:11:27.197Z,1.88
2023-03-28T02:13:59.639Z,2.70
2023-03-28T02:16:27.008Z,2.85
2023-03-28T02:18:56.745Z,2.65
2023-03-28T02:21:58.908Z,1.83
2023-03-28T02:24:25.968Z,1.52
2023-03-28T02:26:53.884Z,1.35
2023-03-28T02:29:21.133Z,1.83
2023-03-28T02:31:49.247Z,1.70
2023-03-28T02:34:16.132Z,4.07
2023-03-28T02:36:52.234Z,2.35
2023-03-28T02:39:34.247Z,1.75
2023-03-28T02:42:19.907Z,1.20
2023-03-28T02:45:18.838Z,2.97
2023-03-28T02:47:55.230Z,2.08
2023-03-28T02:50:36.065Z,2.55
2023-03-28T02:53:14.839Z,1.30
2023-03-28T02:56:04.892Z,1.83
2023-03-28T02:59:02.022Z,3.00
2023-03-28T03:01:32.271Z,1.92
2023-03-28T03:04:00.730Z,2.13
2023-03-28T03:06:27.769Z,3.85
2023-03-28T03:08:54.788Z,2.40
2023-03-28T03:11:21.481Z,2.05
2023-03-28T03:13:48.306Z,3.72
2023-03-28T03:16:15.366Z,4.22
2023-03-28T03:18:42.122Z,5.25
2023-03-28T03:21:08.925Z,2.03
2023-03-28T03:23:36.586Z,3.92
2023-03-28T03:26:03.558Z,3.28
2023-03-28T03:28:30.652Z,3.08
2023-03-28T03:30:57.524Z,3.05
2023-03-28T03:33:24.401Z,1.98
2023-03-28T03:35:51.321Z,5.22
2023-03-28T03:38:18.089Z,3.10
2023-03-28T03:40:44.849Z,2.53
2023-03-28T03:43:11.509Z,1.20
2023-03-28T03:45:40.514Z,2.22
2023-03-28T03:48:07.814Z,2.22
2023-03-28T03:50:34.892Z,2.85
2023-03-28T03:53:01.738Z,1.48
2023-03-28T03:55:28.648Z,3.95
2023-03-28T03:57:55.752Z,2.75
2023-03-28T04:00:22.629Z,3.45
2023-03-28T04:02:49.428Z,2.63
2023-03-28T04:05:16.399Z,3.63
2023-03-28T04:07:43.972Z,0.82
2023-03-28T04:10:11.155Z,2.70
2023-03-28T04:12:37.941Z,3.67
2023-03-28T04:15:06.658Z,3.08
2023-03-28T04:17:35.291Z,4.43
2023-03-28T04:20:07.904Z,3.45
2023-03-28T04:22:35.897Z,2.30
2023-03-28T04:25:13.797Z,2.40
2023-03-28T04:27:41.957Z,2.38
2023-03-28T04:30:11.093Z,3.20
2023-03-28T04:32:40.727Z,3.97
2023-03-28T04:35:08.777Z,3.67
2023-03-28T04:37:37.794Z,3.25
2023-03-28T04:40:10.813Z,2.03
2023-03-28T04:42:41.252Z,1.90
2023-03-28T04:45:08.983Z,4.47
2023-03-28T04:47:40.252Z,2.58
2023-03-28T04:50:08.909Z,2.80
2023-03-28T04:52:36.566Z,2.67
2023-03-28T04:55:04.762Z,1.58
2023-03-28T04:57:31.497Z,1.02
2023-03-28T04:59:58.381Z,4.93
2023-03-28T05:02:25.228Z,2.72
2023-03-28T05:04:53.414Z,1.48
2023-03-28T05:07:20.476Z,1.52
2023-03-28T05:09:47.860Z,2.88
2023-03-28T05:12:14.606Z,1.92
2023-03-28T05:14:41.869Z,1.27
2023-03-28T05:17:08.671Z,1.48
2023-03-28T05:19:35.491Z,1.00
2023-03-28T05:22:02.241Z,2.35
2023-03-28T05:24:28.972Z,2.15
2023-03-28T05:26:55.711Z,2.20
2023-03-28T05:29:22.614Z,4.93
2023-03-28T05:31:49.457Z,3.33
2023-03-28T05:34:16.367Z,1.30
2023-03-28T05:36:43.182Z,3.28
2023-03-28T05:39:09.862Z,4.63
2023-03-28T05:41:36.616Z,2.53
2023-03-28T05:44:04.650Z,2.28
2023-03-28T05:46:31.482Z,4.32
2023-03-28T05:48:58.185Z,2.33
2023-03-28T05:51:24.955Z,1.90
2023-03-28T05:53:51.662Z,3.30
2023-03-28T05:56:18.544Z,2.47
2023-03-28T05:58:45.261Z,1.30
2023-03-28T06:01:12.899Z,4.20
2023-03-28T06:03:40.269Z,2.90
2023-03-28T06:06:08.239Z,2.58
2023-03-28T06:08:35.541Z,6.28
2023-03-28T06:11:04.434Z,3.63
2023-03-28T06:13:31.468Z,4.47
2023-03-28T06:15:58.276Z,5.47
2023-03-28T06:18:25.247Z,4.07
2023-03-28T06:20:52.125Z,3.53
2023-03-28T06:23:18.926Z,3.05
2023-03-28T06:25:45.766Z,2.63
2023-03-28T06:28:13.960Z,2.95
2023-03-28T06:30:40.756Z,3.65
2023-03-28T06:33:08.099Z,2.67
2023-03-28T06:35:35.008Z,2.20
2023-03-28T06:38:01.983Z,2.53
2023-03-28T06:40:28.912Z,4.00
2023-03-28T06:42:56.028Z,3.75
2023-03-28T06:45:22.893Z,3.30
2023-03-28T06:47:50.978Z,3.72
2023-03-28T06:50:18.401Z,5.45
2023-03-28T06:52:46.204Z,2.22
2023-03-28T06:55:12.947Z,3.00
2023-03-28T06:57:39.862Z,4.18
2023-03-28T07:00:07.468Z,3.10
2023-03-28T07:02:34.508Z,6.50
2023-03-28T07:05:01.405Z,3.13
2023-03-28T07:07:28.147Z,3.90
2023-03-28T07:09:55.032Z,5.55
2023-03-28T07:12:21.900Z,5.13
2023-03-28T07:14:48.762Z,6.13
2023-03-28T07:17:15.895Z,5.18
2023-03-28T07:19:42.737Z,3.45
2023-03-28T07:22:10.031Z,1.73
2023-03-28T07:24:37.017Z,1.35
2023-03-28T07:27:14.901Z,2.15
2023-03-28T07:29:43.292Z,2.10
2023-03-28T07:32:10.093Z,0.88
2023-03-28T07:34:37.130Z,2.92
2023-03-28T07:37:05.132Z,2.38
2023-03-28T07:39:32.268Z,1.55
2023-03-28T07:41:59.025Z,1.98
2023-03-28T07:44:25.834Z,1.60
2023-03-28T07:46:52.905Z,2.97
2023-03-28T07:49:21.153Z,2.47
2023-03-28T07:51:48.039Z,3.05
2023-03-28T07:54:17.771Z,2.25
2023-03-28T07:56:45.958Z,3.88
2023-03-28T07:59:13.836Z,4.05
2023-03-28T08:01:45.409Z,1.92
2023-03-28T08:04:13.478Z,3.03
2023-03-28T08:06:41.092Z,2.05
2023-03-28T08:09:09.697Z,3.22
2023-03-28T08:11:38.005Z,5.65
2023-03-28T08:14:09.404Z,3.47
2023-03-28T08:16:36.365Z,2.80
2023-03-28T08:19:11.353Z,3.85
2023-03-28T08:21:38.786Z,3.85
2023-03-28T08:24:07.787Z,3.03
2023-03-28T08:26:34.782Z,3.20
2023-03-28T08:29:02.350Z,2.92
2023-03-28T08:31:29.722Z,3.67
2023-03-28T08:33:57.535Z,3.83
2023-03-28T08:36:27.305Z,2.75
2023-03-28T08:39:00.132Z,4.18
2023-03-28T08:41:45.203Z,3.80
2023-03-28T08:44:21.063Z,2.88
2023-03-28T08:46:52.305Z,3.17
2023-03-28T08:49:19.148Z,3.00
2023-03-28T08:51:51.554Z,1.27
2023-03-28T08:54:49.707Z,2.78
2023-03-28T08:57:36.288Z,1.48
2023-03-28T09:00:15.388Z,1.98
2023-03-28T09:02:43.703Z,2.40
2023-03-28T09:05:23.134Z,3.42
2023-03-28T09:08:45.915Z,1.02
2023-03-28T09:11:45.223Z,4.65
2023-03-28T09:14:32.148Z,3.38
2023-03-28T09:17:11.291Z,3.85
2023-03-28T09:19:49.318Z,1.25
2023-03-28T09:25:04.766Z,2.45
2023-03-28T09:27:38.857Z,2.00
2023-03-28T09:30:19.098Z,2.35
2023-03-28T09:32:46.303Z,1.02
2023-03-28T09:35:21.567Z,1.00
2023-03-28T09:37:59.633Z,3.00
2023-03-28T09:40:32.041Z,2.90
2023-03-28T09:43:14.272Z,1.23
2023-03-28T09:45:45.576Z,2.47
2023-03-28T09:48:27.008Z,1.77
2023-03-28T09:50:53.932Z,1.73
2023-03-28T09:53:24.664Z,2.72
2023-03-28T09:56:03.572Z,2.17
2023-03-28T09:58:47.998Z,1.27
2023-03-28T10:01:45.242Z,1.67
2023-03-28T10:04:18.245Z,1.63
2023-03-28T10:06:46.362Z,2.38
2023-03-28T10:09:13.482Z,0.90
2023-03-28T10:11:52.033Z,1.60
2023-03-28T10:14:38.934Z,2.20
2023-03-28T10:17:25.897Z,3.33
2023-03-28T10:19:58.691Z,1.38
2023-03-28T10:22:37.517Z,1.17
2023-03-28T10:25:06.325Z,1.27
2023-03-28T10:27:35.412Z,1.70
2023-03-28T10:30:22.485Z,2.03
2023-03-28T10:33:17.603Z,1.88
2023-03-28T10:35:46.460Z,1.17
2023-03-28T10:38:16.463Z,2.15
2023-03-28T10:40:43.615Z,1.55
2023-03-28T10:43:15.716Z,2.38
2023-03-28T10:45:45.396Z,2.47
2023-03-28T10:48:16.631Z,1.92
2023-03-28T10:50:53.556Z,1.90
2023-03-28T10:53:54.685Z,2.85
2023-03-28T10:56:38.646Z,4.93
2023-03-28T11:02:08.775Z,1.40
2023-03-28T11:05:01.727Z,1.88
2023-03-28T11:07:40.700Z,1.75
2023-03-28T11:10:23.278Z,1.17
2023-03-28T11:13:04.282Z,2.58
2023-03-28T11:15:46.902Z,1.42
2023-03-28T11:18:28.805Z,2.35
2023-03-28T11:21:14.919Z,0.60
2023-03-28T11:23:46.140Z,1.63
2023-03-28T11:26:23.404Z,2.35
2023-03-28T11:36:22.192Z,2.33
2023-03-28T11:38:53.403Z,1.10
2023-03-28T11:41:24.370Z,1.17
2023-03-28T11:44:07.345Z,1.13
2023-03-28T11:46:43.620Z,2.50
2023-03-28T11:49:26.569Z,1.20
2023-03-28T11:51:57.107Z,2.40
2023-03-28T11:54:44.120Z,3.15
2023-03-28T11:57:34.684Z,2.15
2023-03-28T12:00:34.674Z,0.90
2023-03-28T12:03:13.914Z,1.50
2023-03-28T12:05:50.359Z,1.33
2023-03-28T12:08:36.907Z,2.22
2023-03-28T12:11:07.718Z,2.72
2023-03-28T12:13:58.315Z,2.00
2023-03-28T12:16:40.757Z,1.83
2023-03-28T12:19:12.515Z,2.13
2023-03-28T12:21:45.121Z,1.95
2023-03-28T12:24:18.756Z,2.03
2023-03-28T12:27:10.449Z,2.83
2023-03-28T12:29:47.973Z,2.33
2023-03-28T12:32:46.628Z,1.83
2023-03-28T12:35:21.480Z,1.13
2023-03-28T12:38:07.652Z,1.90
2023-03-28T12:40:47.151Z,2.53
2023-03-28T12:43:17.192Z,1.75
2023-03-28T12:45:48.538Z,2.63
2023-03-28T12:51:25.683Z,1.33
2023-03-28T12:54:01.811Z,2.40
2023-03-28T12:56:28.581Z,2.10
2023-03-28T12:58:56.401Z,1.77
2023-03-28T13:01:38.237Z,1.50
2023-03-28T13:04:22.606Z,1.77
2023-03-28T13:07:07.365Z,2.72
2023-03-28T13:09:43.725Z,1.58
2023-03-28T13:12:55.350Z,1.80
2023-03-28T13:15:28.580Z,1.02
2023-03-28T13:18:17.307Z,2.55
2023-03-28T13:20:48.454Z,3.55
2023-03-28T13:23:17.856Z,2.03
2023-03-28T13:25:54.584Z,4.35
2023-03-28T13:28:31.921Z,2.45
2023-03-28T13:31:04.919Z,1.88
2023-03-28T13:33:45.905Z,2.53
2023-03-28T13:36:18.474Z,2.55
2023-03-28T13:38:48.470Z,3.38
2023-03-28T13:41:33.130Z,1.75
2023-03-28T13:44:07.760Z,2.05
2023-03-28T13:50:44.714Z,1.20
2023-03-28T13:53:16.280Z,1.08
2023-03-28T13:55:47.212Z,1.55
2023-03-28T13:58:42.016Z,0.93
2023-03-28T14:01:21.403Z,2.83
2023-03-28T14:03:51.059Z,1.90
2023-03-28T14:06:32.132Z,1.25
2023-03-28T14:09:05.222Z,1.13
2023-03-28T14:11:41.448Z,2.28
2023-03-28T14:14:32.928Z,1.52
2023-03-28T14:27:59.923Z,4.07
2023-03-28T14:30:44.487Z,1.05
2023-03-28T14:33:14.511Z,1.73
2023-03-28T14:35:46.332Z,1.90
2023-03-28T14:38:35.366Z,1.60
2023-03-28T14:41:14.366Z,1.30
2023-03-28T14:43:53.283Z,1.60
2023-03-28T14:46:32.892Z,1.30
2023-03-28T14:49:02.481Z,2.47
2023-03-28T14:51:39.758Z,1.88
2023-03-28T14:54:10.716Z,1.50
2023-03-28T14:56:40.166Z,1.77
2023-03-28T14:59:07.670Z,1.50
2023-03-28T15:01:34.607Z,2.72
2023-03-28T15:04:05.958Z,1.65
2023-03-28T15:06:33.879Z,2.05
2023-03-28T15:09:09.278Z,2.55
2023-03-28T15:11:37.925Z,1.98
2023-03-28T15:14:04.745Z,2.85
2023-03-28T15:16:36.011Z,1.02
2023-03-28T15:19:09.498Z,2.03
2023-03-28T15:21:39.178Z,1.52
2023-03-28T15:24:10.188Z,1.73
2023-03-28T15:26:42.020Z,1.50
2023-03-28T15:29:10.260Z,1.70
2023-03-28T15:31:40.835Z,1.00
2023-03-28T15:34:11.271Z,2.80
2023-03-28T15:36:38.149Z,3.25
2023-03-28T15:39:29.798Z,1.35
2023-03-28T15:41:59.962Z,2.00
2023-03-28T15:44:33.158Z,4.15
2023-03-28T15:47:03.417Z,3.45
2023-03-28T15:49:36.655Z,1.70
2023-03-28T15:52:23.256Z,1.58
2023-03-28T15:54:52.977Z,2.78
2023-03-28T15:57:23.112Z,2.53
2023-03-28T15:59:54.099Z,1.15
2023-03-28T16:02:23.836Z,1.23
2023-03-28T16:05:17.198Z,1.98
2023-03-28T16:07:43.977Z,3.70
2023-03-28T16:10:13.235Z,1.92
2023-03-28T16:12:40.820Z,2.63
2023-03-28T16:15:08.973Z,2.63
2023-03-28T16:17:36.603Z,1.88
2023-03-28T16:20:15.316Z,2.47
2023-03-28T16:22:42.762Z,2.85
2023-03-28T16:25:09.899Z,1.52
2023-03-28T16:27:37.930Z,1.23
2023-03-28T16:30:07.851Z,3.08
2023-03-28T16:32:35.077Z,2.92
2023-03-28T16:35:01.969Z,4.03
2023-03-28T16:37:29.035Z,1.90
2023-03-28T16:39:55.781Z,5.05
2023-03-28T16:42:24.577Z,2.83
2023-03-28T16:44:51.625Z,2.10
2023-03-28T16:47:18.327Z,2.13
2023-03-28T16:49:45.262Z,2.35
2023-03-28T16:52:12.043Z,3.80
2023-03-28T16:54:38.901Z,3.28
2023-03-28T16:57:05.910Z,3.50
2023-03-28T16:59:35.757Z,3.70
2023-03-28T17:02:02.618Z,3.53
2023-03-28T17:04:30.055Z,2.08
2023-03-28T17:06:57.296Z,2.65
2023-03-28T17:09:24.733Z,2.50
2023-03-28T17:11:52.062Z,2.30
2023-03-28T17:14:18.927Z,2.25
2023-03-28T17:16:45.934Z,2.80
2023-03-28T17:19:13.815Z,1.52
2023-03-28T17:21:40.595Z,3.67
2023-03-28T17:24:11.458Z,2.92
2023-03-28T17:26:38.565Z,2.78
2023-03-28T17:29:07.377Z,5.93
2023-03-28T17:31:34.635Z,3.53
2023-03-28T17:34:01.857Z,6.47
2023-03-28T17:36:29.775Z,5.30
2023-03-28T17:38:58.662Z,3.28
2023-03-28T17:41:27.762Z,4.53
2023-03-28T17:43:57.120Z,4.88
2023-03-28T17:46:24.997Z,4.35
2023-03-28T17:48:51.917Z,3.30
2023-03-28T17:51:19.223Z,5.25
2023-03-28T17:53:47.088Z,7.85
2023-03-28T17:56:16.125Z,9.05
2023-03-28T17:58:43.589Z,6.50
2023-03-28T18:01:16.712Z,6.10
2023-03-28T18:03:45.741Z,5.18
2023-03-28T18:06:13.352Z,3.70
2023-03-28T18:08:40.316Z,4.20
2023-03-28T18:11:10.993Z,4.25
2023-03-28T18:13:39.732Z,5.93
2023-03-28T18:16:12.669Z,5.53
2023-03-28T18:18:40.317Z,4.57
2023-03-28T18:21:08.461Z,5.93
2023-03-28T18:23:36.855Z,4.05
2023-03-28T18:26:04.553Z,3.45
2023-03-28T18:28:31.841Z,2.70
2023-03-28T18:31:17.460Z,4.90
2023-03-28T18:33:44.766Z,6.88
2023-03-28T18:36:13.342Z,4.45
2023-03-28T18:38:42.816Z,6.47
2023-03-28T18:41:12.381Z,4.70
2023-03-28T18:43:41.474Z,4.53
2023-03-28T18:46:09.759Z,3.72
2023-03-28T18:48:36.668Z,3.35
2023-03-28T18:51:03.983Z,2.65
2023-03-28T18:53:33.153Z,3.63
2023-03-28T18:56:00.179Z,2.65
2023-03-28T18:58:27.320Z,3.70
2023-03-28T19:00:59.290Z,3.10
2023-03-28T19:03:27.625Z,4.25
2023-03-28T19:05:59.420Z,4.47
2023-03-28T19:10:54.417Z,3.67
2023-03-28T19:13:21.628Z,8.32
2023-03-28T19:16:01.294Z,4.25
2023-03-28T19:18:28.802Z,3.25
2023-03-28T19:20:56.949Z,5.65
2023-03-28T19:23:24.930Z,2.60
2023-03-28T19:25:52.732Z,5.03
2023-03-28T19:28:20.517Z,3.30
2023-03-28T19:30:48.161Z,2.67
2023-03-28T19:33:15.081Z,4.18
2023-03-28T19:35:42.400Z,3.88
2023-03-28T19:38:09.115Z,3.80
2023-03-28T19:40:35.857Z,4.55
2023-03-28T19:43:02.842Z,3.03
2023-03-28T19:45:30.621Z,4.32
2023-03-28T19:47:57.705Z,4.30
2023-03-28T19:50:24.494Z,4.90
2023-03-28T19:52:51.181Z,3.28
2023-03-28T19:55:18.295Z,4.05
2023-03-28T19:57:45.576Z,4.18
2023-03-28T20:00:12.738Z,5.03
2023-03-28T20:02:39.942Z,5.97
2023-03-28T20:05:07.154Z,5.30
2023-03-28T20:07:33.941Z,3.45
2023-03-28T20:10:00.758Z,3.47
2023-03-28T20:12:27.716Z,3.88
2023-03-28T20:14:56.875Z,2.65
2023-03-28T20:17:23.962Z,5.47
2023-03-28T20:19:51.689Z,3.13
2023-03-28T20:22:20.147Z,5.22
2023-03-28T20:24:48.760Z,2.50
2023-03-28T20:27:16.978Z,3.55
2023-03-28T20:29:44.339Z,7.28
2023-03-28T20:32:11.341Z,3.53
2023-03-28T20:34:38.141Z,2.50
2023-03-28T20:37:04.850Z,7.10
2023-03-28T20:39:36.738Z,2.70
2023-03-28T20:42:05.725Z,3.53
2023-03-28T20:44:38.147Z,4.75
2023-03-28T20:47:10.581Z,4.15
2023-03-28T20:49:38.373Z,6.60
2023-03-28T20:52:07.737Z,2.90
2023-03-28T20:54:35.087Z,4.10
2023-03-28T20:57:02.238Z,5.32
2023-03-28T20:59:29.199Z,2.38
2023-03-28T21:01:55.999Z,4.85
2023-03-28T21:04:23.035Z,4.20
2023-03-28T21:06:50.110Z,4.30
2023-03-28T21:09:18.212Z,2.53
2023-03-28T21:11:45.724Z,3.17
2023-03-28T21:14:14.363Z,5.20
2023-03-28T21:16:41.670Z,3.95
2023-03-28T21:19:09.355Z,4.15
2023-03-28T21:21:36.514Z,4.60
2023-03-28T21:24:04.861Z,3.00
2023-03-28T21:26:31.885Z,2.97
2023-03-28T21:28:59.337Z,3.25
2023-03-28T21:31:29.204Z,4.72
2023-03-28T21:33:57.892Z,5.07
2023-03-28T21:36:26.642Z,4.60
2023-03-28T21:38:53.861Z,3.83
2023-03-28T21:41:22.381Z,4.25
2023-03-28T21:43:49.485Z,3.67
2023-03-28T21:46:18.493Z,4.15
2023-03-28T21:48:47.871Z,3.10
2023-03-28T21:51:16.068Z,3.72
2023-03-28T21:53:43.039Z,3.60
2023-03-28T21:56:11.587Z,4.50
2023-03-28T21:58:38.555Z,6.55
2023-03-28T22:01:05.746Z,4.85
2023-03-28T22:03:36.120Z,3.78
2023-03-28T22:06:03.078Z,4.90
2023-03-28T22:08:29.837Z,4.15
2023-03-28T22:11:01.599Z,4.38
2023-03-28T22:13:29.789Z,4.93
2023-03-28T22:16:01.980Z,3.45
2023-03-28T22:18:30.607Z,6.13
2023-03-28T22:20:57.747Z,5.05
2023-03-28T22:23:24.629Z,8.20
2023-03-28T22:25:52.863Z,6.50
2023-03-28T22:28:24.274Z,9.02
2023-03-28T22:30:53.903Z,5.40
2023-03-28T22:33:20.992Z,4.90
2023-03-28T22:35:48.341Z,2.80
2023-03-28T22:38:15.487Z,7.50
2023-03-28T22:40:42.274Z,4.97
2023-03-28T22:43:09.108Z,4.15
2023-03-28T22:45:37.040Z,4.53
2023-03-28T22:48:04.037Z,6.18
2023-03-28T22:50:33.882Z,4.80
2023-03-28T22:53:02.255Z,8.32
2023-03-28T22:55:29.103Z,10.50
2023-03-28T22:57:56.169Z,7.30
2023-03-28T23:00:23.405Z,8.05
2023-03-28T23:02:51.953Z,4.60
2023-03-28T23:05:19.701Z,6.38
2023-03-28T23:07:46.620Z,7.80
2023-03-28T23:10:16.477Z,4.88
2023-03-28T23:12:43.797Z,7.05
2023-03-28T23:15:11.526Z,6.97
2023-03-28T23:17:38.758Z,4.13
2023-03-28T23:20:12.872Z,6.35
2023-03-28T23:22:47.939Z,4.60
2023-03-28T23:25:17.086Z,4.95
2023-03-28T23:27:44.643Z,5.40
2023-03-28T23:30:13.352Z,7.50
2023-03-28T23:32:40.794Z,6.13
2023-03-28T23:35:09.589Z,5.80
2023-03-28T23:37:38.041Z,4.88
2023-03-28T23:40:06.702Z,8.40
2023-03-28T23:42:33.440Z,5.78
2023-03-28T23:45:00.245Z,6.20
2023-03-28T23:47:27.018Z,4.65
2023-03-28T23:49:53.775Z,5.85
2023-03-28T23:52:20.543Z,5.45
2023-03-28T23:54:47.552Z,7.03
2023-03-28T23:57:14.715Z,7.40
2023-03-28T23:59:41.473Z,7.85
